sensor_id;sensor_type;location;lat;lon;timestamp;pressure;altitude;pressure_sealevel;temperature;humidity
20942;BME280;10630;53.734;10.282;2023-04-02T00:00:09;101212.66;;;5.37;65.11
20942;BME280;10630;53.734;10.282;2023-04-02T00:02:47;101230.03;;;5.74;66.12
20942;BME280;10630;53.734;10.282;2023-04-02T00:07:57;101238.53;;;5.10;66.58
20942;BME280;10630;53.734;10.282;2023-04-02T00:13:01;101248.13;;;5.79;65.91
20942;BME280;10630;53.734;10.282;2023-04-02T00:15:29;101249.06;;;5.89;65.42
20942;BME280;10630;53.734;10.282;2023-04-02T00:17:56;101250.75;;;5.90;64.20
20942;BME280;10630;53.734;10.282;2023-04-02T00:20:24;101253.16;;;6.05;63.19
20942;BME280;10630;53.734;10.282;2023-04-02T00:22:53;101252.41;;;6.46;61.93
20942;BME280;10630;53.734;10.282;2023-04-02T00:25:22;101263.25;;;5.88;61.52
20942;BME280;10630;53.734;10.282;2023-04-02T00:27:51;101260.97;;;5.83;62.58
20942;BME280;10630;53.734;10.282;2023-04-02T00:30:18;101255.59;;;5.74;63.96
20942;BME280;10630;53.734;10.282;2023-04-02T00:32:45;101261.13;;;5.48;64.08
20942;BME280;10630;53.734;10.282;2023-04-02T00:35:18;101267.09;;;5.84;63.99
20942;BME280;10630;53.734;10.282;2023-04-02T00:37:46;101269.16;;;5.80;63.56
20942;BME280;10630;53.734;10.282;2023-04-02T00:42:52;101279.94;;;5.77;62.82
20942;BME280;10630;53.734;10.282;2023-04-02T00:45:23;101278.19;;;5.55;64.68
20942;BME280;10630;53.734;10.282;2023-04-02T00:47:51;101277.06;;;6.03;63.83
20942;BME280;10630;53.734;10.282;2023-04-02T00:50:31;101280.97;;;6.31;63.40
20942;BME280;10630;53.734;10.282;2023-04-02T00:53:02;101289.22;;;5.60;62.93
20942;BME280;10630;53.734;10.282;2023-04-02T00:55:38;101300.47;;;5.17;64.85
20942;BME280;10630;53.734;10.282;2023-04-02T01:01:15;101304.78;;;6.20;64.31
20942;BME280;10630;53.734;10.282;2023-04-02T01:03:42;101300.25;;;5.99;63.57
20942;BME280;10630;53.734;10.282;2023-04-02T01:06:13;101304.69;;;6.10;63.98
20942;BME280;10630;53.734;10.282;2023-04-02T01:24:05;101330.13;;;5.54;62.89
20942;BME280;10630;53.734;10.282;2023-04-02T01:29:34;101329.84;;;6.37;62.44
20942;BME280;10630;53.734;10.282;2023-04-02T01:32:08;101344.88;;;6.37;61.81
20942;BME280;10630;53.734;10.282;2023-04-02T01:34:36;101352.75;;;6.59;61.01
20942;BME280;10630;53.734;10.282;2023-04-02T01:42:37;101365.44;;;6.33;61.92
20942;BME280;10630;53.734;10.282;2023-04-02T01:45:11;101360.47;;;6.51;62.18
20942;BME280;10630;53.734;10.282;2023-04-02T01:47:39;101366.44;;;6.09;61.92
20942;BME280;10630;53.734;10.282;2023-04-02T01:52:40;101363.41;;;7.02;61.04
20942;BME280;10630;53.734;10.282;2023-04-02T01:55:08;101370.16;;;6.07;61.38
20942;BME280;10630;53.734;10.282;2023-04-02T01:57:35;101366.88;;;6.81;61.26
20942;BME280;10630;53.734;10.282;2023-04-02T02:00:03;101376.34;;;6.62;61.52
20942;BME280;10630;53.734;10.282;2023-04-02T02:02:35;101373.72;;;5.94;62.13
20942;BME280;10630;53.734;10.282;2023-04-02T02:05:03;101383.25;;;5.74;62.87
20942;BME280;10630;53.734;10.282;2023-04-02T02:07:30;101381.03;;;6.47;62.34
20942;BME280;10630;53.734;10.282;2023-04-02T02:09:57;101400.53;;;6.24;62.35
20942;BME280;10630;53.734;10.282;2023-04-02T02:12:25;101398.03;;;6.11;62.47
20942;BME280;10630;53.734;10.282;2023-04-02T02:14:51;101398.53;;;6.71;60.88
20942;BME280;10630;53.734;10.282;2023-04-02T02:17:20;101406.66;;;6.36;61.82
20942;BME280;10630;53.734;10.282;2023-04-02T02:19:50;101406.53;;;6.48;61.56
20942;BME280;10630;53.734;10.282;2023-04-02T02:22:29;101401.09;;;6.50;62.11
20942;BME280;10630;53.734;10.282;2023-04-02T02:24:58;101415.31;;;6.38;62.65
20942;BME280;10630;53.734;10.282;2023-04-02T02:29:58;101411.69;;;6.50;62.30
20942;BME280;10630;53.734;10.282;2023-04-02T02:32:26;101412.38;;;6.63;61.78
20942;BME280;10630;53.734;10.282;2023-04-02T02:35:00;101415.06;;;6.96;61.40
20942;BME280;10630;53.734;10.282;2023-04-02T02:37:29;101417.88;;;6.72;60.62
20942;BME280;10630;53.734;10.282;2023-04-02T02:40:01;101433.97;;;6.25;60.59
20942;BME280;10630;53.734;10.282;2023-04-02T02:42:31;101439.34;;;6.46;61.20
20942;BME280;10630;53.734;10.282;2023-04-02T02:44:59;101439.13;;;6.93;60.41
20942;BME280;10630;53.734;10.282;2023-04-02T02:47:33;101441.28;;;6.32;62.65
20942;BME280;10630;53.734;10.282;2023-04-02T02:50:34;101446.03;;;6.73;61.29
20942;BME280;10630;53.734;10.282;2023-04-02T02:52:57;101448.09;;;7.02;60.43
20942;BME280;10630;53.734;10.282;2023-04-02T02:55:31;101454.94;;;6.72;60.60
20942;BME280;10630;53.734;10.282;2023-04-02T02:58:04;101460.50;;;6.12;62.62
20942;BME280;10630;53.734;10.282;2023-04-02T03:00:32;101467.50;;;6.47;63.99
20942;BME280;10630;53.734;10.282;2023-04-02T03:03:00;101468.94;;;5.70;64.50
20942;BME280;10630;53.734;10.282;2023-04-02T03:05:30;101467.97;;;6.52;63.72
20942;BME280;10630;53.734;10.282;2023-04-02T03:07:57;101470.38;;;6.99;61.43
20942;BME280;10630;53.734;10.282;2023-04-02T03:13:11;101479.91;;;6.90;61.83
20942;BME280;10630;53.734;10.282;2023-04-02T03:23:50;101500.16;;;6.57;60.52
20942;BME280;10630;53.734;10.282;2023-04-02T03:26:28;101501.38;;;7.20;60.69
20942;BME280;10630;53.734;10.282;2023-04-02T03:29:02;101504.09;;;7.29;60.24
20942;BME280;10630;53.734;10.282;2023-04-02T03:31:34;101513.16;;;7.48;60.15
20942;BME280;10630;53.734;10.282;2023-04-02T03:36:48;101515.09;;;7.79;58.57
20942;BME280;10630;53.734;10.282;2023-04-02T03:39:19;101522.19;;;7.99;57.91
20942;BME280;10630;53.734;10.282;2023-04-02T03:44:57;101538.78;;;7.26;59.78
20942;BME280;10630;53.734;10.282;2023-04-02T03:47:15;101534.72;;;7.97;59.59
20942;BME280;10630;53.734;10.282;2023-04-02T03:49:49;101538.41;;;8.06;57.97
20942;BME280;10630;53.734;10.282;2023-04-02T03:52:22;101542.38;;;7.90;57.74
20942;BME280;10630;53.734;10.282;2023-04-02T03:54:50;101559.16;;;7.47;58.68
20942;BME280;10630;53.734;10.282;2023-04-02T04:00:12;101567.63;;;7.95;57.57
20942;BME280;10630;53.734;10.282;2023-04-02T04:02:43;101567.91;;;7.59;58.44
20942;BME280;10630;53.734;10.282;2023-04-02T04:05:29;101570.50;;;8.03;57.59
20942;BME280;10630;53.734;10.282;2023-04-02T04:08:02;101579.91;;;7.42;58.97
20942;BME280;10630;53.734;10.282;2023-04-02T04:10:30;101579.03;;;6.97;59.93
20942;BME280;10630;53.734;10.282;2023-04-02T04:13:02;101589.28;;;7.46;59.85
20942;BME280;10630;53.734;10.282;2023-04-02T04:15:39;101595.06;;;7.40;59.43
20942;BME280;10630;53.734;10.282;2023-04-02T04:18:29;101600.28;;;7.63;59.03
20942;BME280;10630;53.734;10.282;2023-04-02T04:21:00;101601.75;;;7.11;59.19
20942;BME280;10630;53.734;10.282;2023-04-02T04:26:02;101607.66;;;7.91;58.60
20942;BME280;10630;53.734;10.282;2023-04-02T04:28:37;101604.63;;;6.52;60.64
20942;BME280;10630;53.734;10.282;2023-04-02T04:33:39;101612.91;;;7.38;61.16
20942;BME280;10630;53.734;10.282;2023-04-02T04:36:26;101621.09;;;6.55;60.53
20942;BME280;10630;53.734;10.282;2023-04-02T04:38:58;101628.00;;;6.58;63.96
20942;BME280;10630;53.734;10.282;2023-04-02T04:41:27;101635.56;;;7.19;60.66
20942;BME280;10630;53.734;10.282;2023-04-02T04:46:41;101642.91;;;7.27;59.08
20942;BME280;10630;53.734;10.282;2023-04-02T04:49:13;101644.69;;;6.47;60.27
20942;BME280;10630;53.734;10.282;2023-04-02T04:54:13;101643.84;;;7.37;59.57
20942;BME280;10630;53.734;10.282;2023-04-02T04:56:46;101653.69;;;7.47;59.59
20942;BME280;10630;53.734;10.282;2023-04-02T05:04:35;101660.72;;;7.25;59.46
20942;BME280;10630;53.734;10.282;2023-04-02T05:07:19;101675.47;;;6.71;60.13
20942;BME280;10630;53.734;10.282;2023-04-02T05:17:27;101679.59;;;7.09;59.77
20942;BME280;10630;53.734;10.282;2023-04-02T05:20:09;101688.03;;;7.25;59.88
20942;BME280;10630;53.734;10.282;2023-04-02T05:25:14;101700.78;;;7.54;59.69
20942;BME280;10630;53.734;10.282;2023-04-02T05:27:45;101696.84;;;7.92;59.02
20942;BME280;10630;53.734;10.282;2023-04-02T05:32:50;101709.53;;;7.78;58.30
20942;BME280;10630;53.734;10.282;2023-04-02T05:35:19;101718.56;;;7.64;59.63
20942;BME280;10630;53.734;10.282;2023-04-02T05:37:48;101714.03;;;7.09;59.29
20942;BME280;10630;53.734;10.282;2023-04-02T05:40:20;101719.34;;;7.32;60.29
20942;BME280;10630;53.734;10.282;2023-04-02T05:42:49;101725.22;;;7.47;60.16
20942;BME280;10630;53.734;10.282;2023-04-02T05:45:19;101730.84;;;7.65;59.66
20942;BME280;10630;53.734;10.282;2023-04-02T05:47:48;101728.84;;;7.34;59.65
20942;BME280;10630;53.734;10.282;2023-04-02T05:50:20;101728.25;;;7.97;59.74
20942;BME280;10630;53.734;10.282;2023-04-02T05:52:49;101732.22;;;8.03;58.78
20942;BME280;10630;53.734;10.282;2023-04-02T05:55:33;101732.13;;;8.04;59.03
20942;BME280;10630;53.734;10.282;2023-04-02T05:58:23;101746.72;;;7.87;58.75
20942;BME280;10630;53.734;10.282;2023-04-02T06:01:12;101757.09;;;7.90;58.02
20942;BME280;10630;53.734;10.282;2023-04-02T06:06:13;101754.22;;;7.71;59.89
20942;BME280;10630;53.734;10.282;2023-04-02T06:08:47;101760.63;;;8.23;57.98
20942;BME280;10630;53.734;10.282;2023-04-02T06:11:20;101759.28;;;7.63;59.52
20942;BME280;10630;53.734;10.282;2023-04-02T06:13:49;101768.72;;;8.11;59.21
20942;BME280;10630;53.734;10.282;2023-04-02T06:16:17;101764.03;;;8.14;58.62
20942;BME280;10630;53.734;10.282;2023-04-02T06:18:46;101759.66;;;8.57;58.53
20942;BME280;10630;53.734;10.282;2023-04-02T06:21:14;101764.44;;;8.31;57.16
20942;BME280;10630;53.734;10.282;2023-04-02T06:23:49;101775.69;;;8.55;56.83
20942;BME280;10630;53.734;10.282;2023-04-02T06:26:23;101783.09;;;8.40;57.82
20942;BME280;10630;53.734;10.282;2023-04-02T06:31:37;101802.28;;;8.33;57.62
20942;BME280;10630;53.734;10.282;2023-04-02T06:34:09;101770.34;;;7.90;57.85
20942;BME280;10630;53.734;10.282;2023-04-02T06:36:36;101804.47;;;7.72;57.07
20942;BME280;10630;53.734;10.282;2023-04-02T06:39:06;101810.13;;;7.56;56.88
20942;BME280;10630;53.734;10.282;2023-04-02T06:41:34;101809.88;;;7.48;57.14
20942;BME280;10630;53.734;10.282;2023-04-02T06:44:03;101812.72;;;8.13;57.67
20942;BME280;10630;53.734;10.282;2023-04-02T06:46:37;101807.09;;;8.50;56.98
20942;BME280;10630;53.734;10.282;2023-04-02T06:49:10;101820.81;;;8.00;57.98
20942;BME280;10630;53.734;10.282;2023-04-02T06:51:38;101824.41;;;8.66;57.37
20942;BME280;10630;53.734;10.282;2023-04-02T06:54:10;101835.63;;;8.14;57.93
20942;BME280;10630;53.734;10.282;2023-04-02T06:56:41;101845.66;;;8.43;56.85
20942;BME280;10630;53.734;10.282;2023-04-02T06:59:09;101846.50;;;7.66;57.95
20942;BME280;10630;53.734;10.282;2023-04-02T07:01:47;101849.81;;;8.24;57.37
20942;BME280;10630;53.734;10.282;2023-04-02T07:04:16;101850.47;;;7.49;59.87
20942;BME280;10630;53.734;10.282;2023-04-02T07:06:44;101857.13;;;8.55;58.65
20942;BME280;10630;53.734;10.282;2023-04-02T07:09:12;101856.47;;;8.63;56.83
20942;BME280;10630;53.734;10.282;2023-04-02T07:11:39;101859.78;;;9.09;57.13
20942;BME280;10630;53.734;10.282;2023-04-02T07:14:07;101868.31;;;8.91;55.97
20942;BME280;10630;53.734;10.282;2023-04-02T07:16:34;101873.16;;;8.42;57.63
20942;BME280;10630;53.734;10.282;2023-04-02T07:19:02;101872.03;;;7.67;57.94
20942;BME280;10630;53.734;10.282;2023-04-02T07:21:30;101873.72;;;8.13;59.14
20942;BME280;10630;53.734;10.282;2023-04-02T07:23:57;101883.34;;;7.57;58.01
20942;BME280;10630;53.734;10.282;2023-04-02T07:26:24;101884.72;;;7.16;58.97
20942;BME280;10630;53.734;10.282;2023-04-02T07:28:55;101890.09;;;6.79;59.90
20942;BME280;10630;53.734;10.282;2023-04-02T07:31:25;101891.50;;;6.72;60.14
20942;BME280;10630;53.734;10.282;2023-04-02T07:33:54;101892.34;;;7.43;60.72
20942;BME280;10630;53.734;10.282;2023-04-02T07:36:21;101896.75;;;7.20;60.54
20942;BME280;10630;53.734;10.282;2023-04-02T07:38:49;101893.72;;;7.83;59.65
20942;BME280;10630;53.734;10.282;2023-04-02T07:41:18;101900.94;;;7.58;59.66
20942;BME280;10630;53.734;10.282;2023-04-02T07:43:46;101912.63;;;8.24;59.31
20942;BME280;10630;53.734;10.282;2023-04-02T07:46:15;101913.69;;;8.33;57.89
20942;BME280;10630;53.734;10.282;2023-04-02T07:48:43;101913.81;;;8.54;57.50
20942;BME280;10630;53.734;10.282;2023-04-02T07:51:18;101919.72;;;9.65;56.91
20942;BME280;10630;53.734;10.282;2023-04-02T07:53:46;101923.06;;;8.71;56.39
20942;BME280;10630;53.734;10.282;2023-04-02T07:56:17;101928.44;;;7.91;57.00
20942;BME280;10630;53.734;10.282;2023-04-02T07:58:44;101936.03;;;8.19;57.38
20942;BME280;10630;53.734;10.282;2023-04-02T08:01:22;101943.75;;;7.88;57.96
20942;BME280;10630;53.734;10.282;2023-04-02T08:03:52;101940.97;;;8.35;57.84
20942;BME280;10630;53.734;10.282;2023-04-02T08:06:20;101954.31;;;9.11;55.70
20942;BME280;10630;53.734;10.282;2023-04-02T08:08:47;101945.69;;;8.98;54.85
20942;BME280;10630;53.734;10.282;2023-04-02T08:11:15;101962.56;;;8.19;56.16
20942;BME280;10630;53.734;10.282;2023-04-02T08:13:42;101959.44;;;8.48;57.07
20942;BME280;10630;53.734;10.282;2023-04-02T08:16:10;101955.66;;;7.93;57.39
20942;BME280;10630;53.734;10.282;2023-04-02T08:18:37;101964.25;;;8.65;57.06
20942;BME280;10630;53.734;10.282;2023-04-02T08:21:07;101977.38;;;8.67;56.18
20942;BME280;10630;53.734;10.282;2023-04-02T08:23:35;101977.72;;;8.28;57.14
20942;BME280;10630;53.734;10.282;2023-04-02T08:26:02;101982.81;;;8.31;58.30
20942;BME280;10630;53.734;10.282;2023-04-02T08:28:29;101991.91;;;7.82;59.19
20942;BME280;10630;53.734;10.282;2023-04-02T08:30:56;101998.31;;;7.43;59.34
20942;BME280;10630;53.734;10.282;2023-04-02T08:33:23;101993.75;;;8.04;59.35
20942;BME280;10630;53.734;10.282;2023-04-02T08:35:51;101997.13;;;8.17;57.94
20942;BME280;10630;53.734;10.282;2023-04-02T08:38:18;102002.94;;;8.45;58.03
20942;BME280;10630;53.734;10.282;2023-04-02T08:40:48;101998.13;;;8.73;57.42
20942;BME280;10630;53.734;10.282;2023-04-02T08:48:09;102008.19;;;9.02;56.71
20942;BME280;10630;53.734;10.282;2023-04-02T08:50:38;102010.97;;;9.33;55.94
20942;BME280;10630;53.734;10.282;2023-04-02T08:53:13;102014.22;;;9.69;56.08
20942;BME280;10630;53.734;10.282;2023-04-02T09:00:47;102019.66;;;9.35;57.28
20942;BME280;10630;53.734;10.282;2023-04-02T09:03:18;102017.31;;;9.21;57.02
20942;BME280;10630;53.734;10.282;2023-04-02T09:05:45;102022.44;;;9.66;55.59
20942;BME280;10630;53.734;10.282;2023-04-02T09:08:17;102033.50;;;9.17;55.37
20942;BME280;10630;53.734;10.282;2023-04-02T09:13:33;102051.34;;;9.80;52.24
20942;BME280;10630;53.734;10.282;2023-04-02T09:16:09;102051.47;;;10.00;52.58
20942;BME280;10630;53.734;10.282;2023-04-02T09:18:37;102057.13;;;10.07;52.46
20942;BME280;10630;53.734;10.282;2023-04-02T09:23:46;102055.44;;;10.58;50.22
20942;BME280;10630;53.734;10.282;2023-04-02T09:26:19;102070.63;;;9.73;51.01
20942;BME280;10630;53.734;10.282;2023-04-02T09:28:47;102064.19;;;9.10;52.07
20942;BME280;10630;53.734;10.282;2023-04-02T09:31:17;102066.91;;;10.49;52.00
20942;BME280;10630;53.734;10.282;2023-04-02T09:33:46;102059.69;;;11.70;49.08
20942;BME280;10630;53.734;10.282;2023-04-02T09:36:24;102072.59;;;11.94;48.15
20942;BME280;10630;53.734;10.282;2023-04-02T09:39:04;102086.06;;;9.79;51.66
20942;BME280;10630;53.734;10.282;2023-04-02T09:41:33;102089.03;;;9.09;56.16
20942;BME280;10630;53.734;10.282;2023-04-02T09:46:46;102089.38;;;9.92;52.42
20942;BME280;10630;53.734;10.282;2023-04-02T09:49:14;102093.88;;;9.15;55.79
20942;BME280;10630;53.734;10.282;2023-04-02T09:51:44;102100.28;;;9.57;56.84
20942;BME280;10630;53.734;10.282;2023-04-02T09:54:14;102103.47;;;8.73;55.30
20942;BME280;10630;53.734;10.282;2023-04-02T09:56:57;102112.44;;;8.36;56.23
20942;BME280;10630;53.734;10.282;2023-04-02T09:59:26;102109.78;;;10.45;52.83
20942;BME280;10630;53.734;10.282;2023-04-02T10:09:58;102128.03;;;9.20;57.71
20942;BME280;10630;53.734;10.282;2023-04-02T10:12:28;102127.22;;;8.51;57.63
20942;BME280;10630;53.734;10.282;2023-04-02T10:14:56;102132.53;;;8.51;56.94
20942;BME280;10630;53.734;10.282;2023-04-02T10:17:26;102133.00;;;8.57;55.43
20942;BME280;10630;53.734;10.282;2023-04-02T10:20:02;102127.56;;;9.26;56.89
20942;BME280;10630;53.734;10.282;2023-04-02T10:22:31;102145.75;;;9.54;54.16
20942;BME280;10630;53.734;10.282;2023-04-02T10:24:58;102146.34;;;10.32;52.80
20942;BME280;10630;53.734;10.282;2023-04-02T10:27:34;102146.16;;;10.24;53.04
20942;BME280;10630;53.734;10.282;2023-04-02T10:40:27;102164.81;;;9.59;52.78
20942;BME280;10630;53.734;10.282;2023-04-02T10:45:55;102174.75;;;9.45;52.40
20942;BME280;10630;53.734;10.282;2023-04-02T10:51:30;102192.22;;;9.59;52.87
20942;BME280;10630;53.734;10.282;2023-04-02T10:56:33;102199.66;;;11.15;48.27
20942;BME280;10630;53.734;10.282;2023-04-02T10:59:19;102205.28;;;10.06;53.92
20942;BME280;10630;53.734;10.282;2023-04-02T11:01:49;102199.75;;;10.52;52.94
20942;BME280;10630;53.734;10.282;2023-04-02T11:05:04;102213.88;;;9.43;56.91
20942;BME280;10630;53.734;10.282;2023-04-02T11:07:13;102222.94;;;8.73;57.19
20942;BME280;10630;53.734;10.282;2023-04-02T11:09:44;102226.72;;;8.21;56.06
20942;BME280;10630;53.734;10.282;2023-04-02T11:12:20;102217.72;;;8.00;56.29
20942;BME280;10630;53.734;10.282;2023-04-02T11:14:48;102214.50;;;9.01;58.89
20942;BME280;10630;53.734;10.282;2023-04-02T11:17:18;102226.91;;;9.69;55.83
20942;BME280;10630;53.734;10.282;2023-04-02T11:19:48;102229.22;;;9.40;55.34
20942;BME280;10630;53.734;10.282;2023-04-02T11:22:22;102226.41;;;9.75;56.19
20942;BME280;10630;53.734;10.282;2023-04-02T11:29:54;102236.94;;;8.15;57.39
20942;BME280;10630;53.734;10.282;2023-04-02T11:35:18;102240.22;;;10.02;54.67
20942;BME280;10630;53.734;10.282;2023-04-02T11:37:44;102231.09;;;10.16;54.60
20942;BME280;10630;53.734;10.282;2023-04-02T11:42:43;102233.63;;;10.50;51.56
20942;BME280;10630;53.734;10.282;2023-04-02T11:50:37;102259.06;;;9.32;55.28
20942;BME280;10630;53.734;10.282;2023-04-02T11:55:38;102257.88;;;8.66;56.98
20942;BME280;10630;53.734;10.282;2023-04-02T11:58:09;102258.81;;;9.24;55.17
20942;BME280;10630;53.734;10.282;2023-04-02T12:09:43;102263.38;;;10.55;47.81
20942;BME280;10630;53.734;10.282;2023-04-02T12:11:50;102278.31;;;10.02;51.19
20942;BME280;10630;53.734;10.282;2023-04-02T12:14:36;102280.31;;;10.21;54.77
20942;BME280;10630;53.734;10.282;2023-04-02T12:17:28;102289.72;;;9.81;52.61
20942;BME280;10630;53.734;10.282;2023-04-02T12:19:57;102282.25;;;9.30;54.09
20942;BME280;10630;53.734;10.282;2023-04-02T12:22:29;102284.84;;;9.98;55.28
20942;BME280;10630;53.734;10.282;2023-04-02T12:25:00;102300.91;;;10.08;53.27
20942;BME280;10630;53.734;10.282;2023-04-02T12:27:28;102296.09;;;10.45;53.80
20942;BME280;10630;53.734;10.282;2023-04-02T12:30:09;102301.56;;;9.77;55.64
20942;BME280;10630;53.734;10.282;2023-04-02T12:32:36;102310.28;;;9.23;54.90
20942;BME280;10630;53.734;10.282;2023-04-02T12:35:14;102307.28;;;10.17;54.51
20942;BME280;10630;53.734;10.282;2023-04-02T12:37:53;102303.31;;;10.55;54.59
20942;BME280;10630;53.734;10.282;2023-04-02T12:40:23;102304.97;;;9.34;54.45
20942;BME280;10630;53.734;10.282;2023-04-02T12:42:50;102318.34;;;9.10;54.35
20942;BME280;10630;53.734;10.282;2023-04-02T12:45:28;102313.19;;;9.65;54.58
20942;BME280;10630;53.734;10.282;2023-04-02T12:47:59;102312.56;;;9.27;52.65
20942;BME280;10630;53.734;10.282;2023-04-02T12:50:28;102309.91;;;10.39;51.69
20942;BME280;10630;53.734;10.282;2023-04-02T12:52:56;102307.59;;;11.31;48.77
20942;BME280;10630;53.734;10.282;2023-04-02T12:55:24;102303.88;;;9.25;51.16
20942;BME280;10630;53.734;10.282;2023-04-02T12:57:56;102316.06;;;9.73;54.31
20942;BME280;10630;53.734;10.282;2023-04-02T13:02:57;102299.28;;;9.27;54.64
20942;BME280;10630;53.734;10.282;2023-04-02T13:05:43;102311.41;;;10.21;52.22
20942;BME280;10630;53.734;10.282;2023-04-02T13:08:53;102306.41;;;9.27;50.83
20942;BME280;10630;53.734;10.282;2023-04-02T13:11:02;102301.22;;;9.48;52.17
20942;BME280;10630;53.734;10.282;2023-04-02T13:13:35;102313.19;;;10.20;51.83
20942;BME280;10630;53.734;10.282;2023-04-02T13:18:34;102320.53;;;10.51;51.10
20942;BME280;10630;53.734;10.282;2023-04-02T13:21:21;102328.81;;;10.90;51.55
20942;BME280;10630;53.734;10.282;2023-04-02T13:23:53;102331.66;;;10.98;50.77
20942;BME280;10630;53.734;10.282;2023-04-02T13:26:22;102331.72;;;10.22;50.56
20942;BME280;10630;53.734;10.282;2023-04-02T13:31:31;102339.09;;;10.95;49.32
20942;BME280;10630;53.734;10.282;2023-04-02T13:33:59;102339.78;;;10.75;52.13
20942;BME280;10630;53.734;10.282;2023-04-02T13:39:16;102343.25;;;9.77;52.63
20942;BME280;10630;53.734;10.282;2023-04-02T13:41:47;102338.28;;;9.95;52.26
20942;BME280;10630;53.734;10.282;2023-04-02T13:44:24;102340.47;;;9.56;53.01
20942;BME280;10630;53.734;10.282;2023-04-02T13:46:54;102343.13;;;9.90;52.81
20942;BME280;10630;53.734;10.282;2023-04-02T13:49:23;102344.72;;;10.04;52.99
20942;BME280;10630;53.734;10.282;2023-04-02T13:51:55;102335.97;;;10.57;51.43
20942;BME280;10630;53.734;10.282;2023-04-02T13:56:54;102353.78;;;9.44;53.66
20942;BME280;10630;53.734;10.282;2023-04-02T13:59:24;102350.84;;;9.25;56.71
20942;BME280;10630;53.734;10.282;2023-04-02T14:01:54;102351.34;;;9.64;57.23
20942;BME280;10630;53.734;10.282;2023-04-02T14:04:28;102358.53;;;9.05;58.16
20942;BME280;10630;53.734;10.282;2023-04-02T14:12:22;102351.25;;;11.70;51.62
20942;BME280;10630;53.734;10.282;2023-04-02T14:23:06;102380.50;;;9.54;55.73
20942;BME280;10630;53.734;10.282;2023-04-02T14:31:09;102385.91;;;10.09;55.25
20942;BME280;10630;53.734;10.282;2023-04-02T14:33:46;102399.84;;;9.56;57.68
20942;BME280;10630;53.734;10.282;2023-04-02T14:44:51;102403.94;;;9.94;54.62
20942;BME280;10630;53.734;10.282;2023-04-02T14:47:46;102407.06;;;9.54;52.67
20942;BME280;10630;53.734;10.282;2023-04-02T14:50:18;102407.66;;;10.26;52.64
20942;BME280;10630;53.734;10.282;2023-04-02T14:52:49;102406.72;;;9.93;51.41
20942;BME280;10630;53.734;10.282;2023-04-02T14:55:25;102406.81;;;9.34;51.96
20942;BME280;10630;53.734;10.282;2023-04-02T14:57:54;102418.50;;;9.32;53.82
20942;BME280;10630;53.734;10.282;2023-04-02T15:00:34;102408.16;;;9.05;53.58
20942;BME280;10630;53.734;10.282;2023-04-02T15:03:15;102418.91;;;9.61;54.83
20942;BME280;10630;53.734;10.282;2023-04-02T15:05:52;102421.44;;;9.52;55.44
20942;BME280;10630;53.734;10.282;2023-04-02T15:08:23;102424.88;;;9.99;55.24
20942;BME280;10630;53.734;10.282;2023-04-02T15:10:54;102428.38;;;10.11;52.21
20942;BME280;10630;53.734;10.282;2023-04-02T15:16:15;102427.94;;;9.00;54.05
20942;BME280;10630;53.734;10.282;2023-04-02T15:18:51;102437.59;;;9.01;55.69
20942;BME280;10630;53.734;10.282;2023-04-02T15:23:51;102423.41;;;9.95;52.99
20942;BME280;10630;53.734;10.282;2023-04-02T15:26:25;102431.28;;;10.42;51.12
20942;BME280;10630;53.734;10.282;2023-04-02T15:29:10;102434.03;;;9.95;50.58
20942;BME280;10630;53.734;10.282;2023-04-02T15:40:05;102438.38;;;9.73;53.84
20942;BME280;10630;53.734;10.282;2023-04-02T15:45:25;102443.81;;;9.13;54.33
20942;BME280;10630;53.734;10.282;2023-04-02T15:50:45;102462.06;;;8.19;54.39
20942;BME280;10630;53.734;10.282;2023-04-02T15:53:32;102464.53;;;9.08;53.22
20942;BME280;10630;53.734;10.282;2023-04-02T15:58:50;102468.41;;;9.04;51.61
20942;BME280;10630;53.734;10.282;2023-04-02T16:12:10;102478.28;;;8.53;52.99
20942;BME280;10630;53.734;10.282;2023-04-02T16:14:39;102478.09;;;7.53;53.79
20942;BME280;10630;53.734;10.282;2023-04-02T16:17:10;102482.44;;;8.19;54.32
20942;BME280;10630;53.734;10.282;2023-04-02T16:19:53;102480.09;;;8.27;53.53
20942;BME280;10630;53.734;10.282;2023-04-02T16:22:26;102484.50;;;8.65;52.74
20942;BME280;10630;53.734;10.282;2023-04-02T16:24:59;102485.72;;;7.97;53.85
20942;BME280;10630;53.734;10.282;2023-04-02T16:27:40;102493.91;;;8.06;53.52
20942;BME280;10630;53.734;10.282;2023-04-02T16:30:58;102501.44;;;7.87;54.52
20942;BME280;10630;53.734;10.282;2023-04-02T16:33:06;102508.84;;;7.69;54.71
20942;BME280;10630;53.734;10.282;2023-04-02T16:35:52;102515.94;;;7.68;54.61
20942;BME280;10630;53.734;10.282;2023-04-02T16:38:33;102518.09;;;7.36;54.87
20942;BME280;10630;53.734;10.282;2023-04-02T16:41:27;102520.50;;;7.79;56.43
20942;BME280;10630;53.734;10.282;2023-04-02T16:44:56;102527.66;;;7.11;56.68
20942;BME280;10630;53.734;10.282;2023-04-02T16:49:36;102532.59;;;7.03;55.59
20942;BME280;10630;53.734;10.282;2023-04-02T17:00:31;102545.03;;;8.21;55.38
20942;BME280;10630;53.734;10.282;2023-04-02T17:08:26;102568.28;;;8.31;54.88
20942;BME280;10630;53.734;10.282;2023-04-02T17:11:04;102574.31;;;7.26;54.84
20942;BME280;10630;53.734;10.282;2023-04-02T17:13:41;102578.63;;;7.42;55.86
20942;BME280;10630;53.734;10.282;2023-04-02T17:18:50;102589.28;;;7.27;58.70
20942;BME280;10630;53.734;10.282;2023-04-02T17:21:19;102584.03;;;7.93;57.54
20942;BME280;10630;53.734;10.282;2023-04-02T17:26:38;102597.97;;;7.29;59.59
20942;BME280;10630;53.734;10.282;2023-04-02T17:29:07;102608.09;;;6.81;60.14
20942;BME280;10630;53.734;10.282;2023-04-02T17:31:38;102619.44;;;6.40;61.66